createdAt,value
2023-10-14T00:01:29.769Z,20.00
2023-10-14T00:03:58.435Z,19.96
2023-10-14T00:06:28.169Z,19.95
2023-10-14T00:08:58.821Z,19.83
2023-10-14T00:11:34.226Z,19.69
2023-10-14T00:14:04.130Z,19.70
2023-10-14T00:16:36.747Z,19.60
2023-10-14T00:19:06.099Z,19.59
2023-10-14T00:21:35.957Z,19.45
2023-10-14T00:24:07.604Z,19.45
2023-10-14T00:26:37.160Z,19.23
2023-10-14T00:29:21.157Z,18.87
2023-10-14T00:31:51.077Z,18.75
2023-10-14T00:34:22.827Z,18.71
2023-10-14T00:36:50.956Z,18.67
2023-10-14T00:39:24.425Z,18.37
2023-10-14T00:41:54.112Z,18.44
2023-10-14T00:44:25.429Z,18.44
2023-10-14T00:46:55.148Z,18.29
2023-10-14T00:49:32.107Z,18.26
2023-10-14T00:52:02.227Z,18.33
2023-10-14T00:54:41.808Z,18.31
2023-10-14T00:57:21.324Z,18.57
2023-10-14T00:59:54.989Z,18.59
2023-10-14T01:02:30.750Z,18.71
2023-10-14T01:05:07.938Z,18.65
2023-10-14T01:07:36.067Z,18.74
2023-10-14T01:10:06.791Z,18.71
2023-10-14T01:12:41.305Z,18.75
2023-10-14T01:15:18.425Z,18.73
2023-10-14T01:17:46.566Z,18.72
2023-10-14T01:20:27.534Z,18.62
2023-10-14T01:22:59.541Z,18.60
2023-10-14T01:25:31.809Z,18.77
2023-10-14T01:28:00.698Z,18.73
2023-10-14T01:30:38.892Z,18.76
2023-10-14T01:33:14.169Z,18.90
2023-10-14T01:35:44.160Z,18.87
2023-10-14T01:38:14.746Z,18.88
2023-10-14T01:40:50.326Z,18.76
2023-10-14T01:43:19.261Z,18.80
2023-10-14T01:45:52.239Z,18.85
2023-10-14T01:48:22.904Z,18.90
2023-10-14T01:50:55.816Z,18.83
2023-10-14T01:53:28.162Z,18.79
2023-10-14T01:56:00.994Z,18.71
2023-10-14T01:58:35.532Z,18.60
2023-10-14T02:01:08.897Z,18.39
2023-10-14T02:03:43.656Z,18.37
2023-10-14T02:06:19.268Z,18.38
2023-10-14T02:08:52.109Z,18.55
2023-10-14T02:11:21.902Z,18.47
2023-10-14T02:13:52.627Z,18.45
2023-10-14T02:16:26.673Z,18.47
2023-10-14T02:19:04.529Z,18.43
2023-10-14T02:21:34.694Z,18.42
2023-10-14T02:24:05.782Z,18.46
2023-10-14T02:26:34.953Z,18.38
2023-10-14T02:29:07.745Z,18.43
2023-10-14T02:31:37.870Z,18.41
2023-10-14T02:34:08.198Z,18.41
2023-10-14T02:36:43.141Z,18.54
2023-10-14T02:39:16.127Z,18.62
2023-10-14T02:41:46.367Z,18.65
2023-10-14T02:44:29.296Z,18.83
2023-10-14T02:47:03.035Z,18.80
2023-10-14T02:49:36.759Z,18.75
2023-10-14T02:52:09.929Z,18.97
2023-10-14T02:54:43.526Z,18.95
2023-10-14T02:57:25.483Z,18.96
2023-10-14T02:59:57.230Z,18.93
2023-10-14T03:02:28.544Z,19.01
2023-10-14T03:05:11.526Z,19.11
2023-10-14T03:07:49.477Z,19.11
2023-10-14T03:10:35.627Z,19.10
2023-10-14T03:13:03.615Z,19.32
2023-10-14T03:15:33.444Z,19.24
2023-10-14T03:18:02.770Z,19.38
2023-10-14T03:20:40.877Z,19.54
2023-10-14T03:23:19.071Z,19.55
2023-10-14T03:25:50.946Z,19.60
2023-10-14T03:28:21.468Z,19.68
2023-10-14T03:30:56.300Z,19.67
2023-10-14T03:33:28.971Z,19.63
2023-10-14T03:36:01.698Z,19.61
2023-10-14T03:38:41.867Z,19.65
2023-10-14T03:41:20.227Z,19.64
2023-10-14T03:43:55.365Z,19.54
2023-10-14T03:46:33.710Z,19.53
2023-10-14T03:49:09.675Z,19.40
2023-10-14T03:51:40.954Z,19.48
2023-10-14T03:54:10.436Z,19.37
2023-10-14T03:56:45.863Z,19.39
2023-10-14T03:59:21.723Z,19.37
2023-10-14T04:01:55.837Z,19.24
2023-10-14T04:04:25.101Z,19.27
2023-10-14T04:07:14.267Z,19.21
2023-10-14T04:09:45.619Z,19.14
2023-10-14T04:12:31.477Z,19.09
2023-10-14T04:15:06.755Z,19.04
2023-10-14T04:17:35.497Z,19.08
2023-10-14T04:20:23.079Z,18.99
2023-10-14T04:22:54.170Z,19.07
2023-10-14T04:25:23.606Z,19.09
2023-10-14T04:28:12.493Z,18.96
2023-10-14T04:30:43.556Z,18.86
2023-10-14T04:33:25.325Z,18.94
2023-10-14T04:36:09.753Z,18.99
2023-10-14T04:38:43.831Z,18.91
2023-10-14T04:41:15.305Z,18.98
2023-10-14T04:44:01.937Z,19.08
2023-10-14T04:46:47.221Z,19.11
2023-10-14T04:49:18.077Z,18.92
2023-10-14T04:51:49.113Z,19.02
2023-10-14T04:54:20.946Z,19.01
2023-10-14T04:56:50.136Z,19.05
2023-10-14T04:59:26.229Z,19.09
2023-10-14T05:01:57.152Z,18.98
2023-10-14T05:04:31.688Z,18.42
2023-10-14T05:07:06.244Z,17.69
2023-10-14T05:09:40.943Z,17.05
2023-10-14T05:12:09.558Z,16.42
2023-10-14T05:14:38.872Z,16.20
2023-10-14T05:17:15.862Z,16.21
2023-10-14T05:19:44.735Z,16.18
2023-10-14T05:22:20.318Z,16.20
2023-10-14T05:24:50.827Z,16.27
2023-10-14T05:27:20.783Z,16.26
2023-10-14T05:29:52.755Z,16.23
2023-10-14T05:32:24.986Z,16.24
2023-10-14T05:34:53.665Z,16.16
2023-10-14T05:37:22.902Z,16.12
2023-10-14T05:39:51.966Z,16.05
2023-10-14T05:42:22.381Z,16.02
2023-10-14T05:44:59.164Z,15.99
2023-10-14T05:47:28.623Z,15.91
2023-10-14T05:49:57.158Z,15.80
2023-10-14T05:52:26.282Z,15.63
2023-10-14T05:54:54.612Z,15.12
2023-10-14T05:57:23.806Z,14.85
2023-10-14T05:59:53.597Z,14.47
2023-10-14T06:02:21.573Z,14.29
2023-10-14T06:04:51.748Z,14.18
2023-10-14T06:07:20.742Z,13.95
2023-10-14T06:09:48.829Z,13.77
2023-10-14T06:12:18.218Z,13.68
2023-10-14T06:14:48.041Z,13.58
2023-10-14T06:17:17.627Z,13.43
2023-10-14T06:19:45.702Z,13.41
2023-10-14T06:22:14.686Z,13.34
2023-10-14T06:24:43.501Z,13.28
2023-10-14T06:27:22.273Z,13.17
2023-10-14T06:29:52.008Z,13.06
2023-10-14T06:32:22.416Z,13.03
2023-10-14T06:34:59.672Z,13.00
2023-10-14T06:37:28.742Z,12.99
2023-10-14T06:39:58.058Z,13.00
2023-10-14T06:42:27.902Z,13.02
2023-10-14T06:44:56.287Z,13.01
2023-10-14T06:47:25.638Z,13.04
2023-10-14T06:49:55.366Z,13.03
2023-10-14T06:52:23.392Z,13.04
2023-10-14T06:54:54.403Z,13.06
2023-10-14T06:57:23.374Z,13.06
2023-10-14T06:59:51.459Z,13.10
2023-10-14T07:02:19.952Z,13.13
2023-10-14T07:04:51.424Z,13.13
2023-10-14T07:07:20.764Z,13.16
2023-10-14T07:09:49.185Z,13.19
2023-10-14T07:12:21.130Z,13.19
2023-10-14T07:14:49.452Z,13.18
2023-10-14T07:17:23.510Z,13.23
2023-10-14T07:19:52.905Z,13.26
2023-10-14T07:22:22.525Z,13.25
2023-10-14T07:24:52.112Z,13.30
2023-10-14T07:27:21.622Z,13.33
2023-10-14T07:29:49.687Z,13.32
2023-10-14T07:32:20.750Z,13.32
2023-10-14T07:34:51.653Z,13.38
2023-10-14T07:37:21.488Z,13.44
2023-10-14T07:39:53.767Z,13.41
2023-10-14T07:42:22.955Z,13.41
2023-10-14T07:44:53.240Z,13.38
2023-10-14T07:47:25.227Z,13.32
2023-10-14T07:49:55.610Z,13.36
2023-10-14T07:52:25.003Z,13.30
2023-10-14T07:54:53.442Z,13.26
2023-10-14T07:57:22.458Z,13.30
2023-10-14T07:59:51.777Z,13.24
2023-10-14T08:02:20.125Z,13.28
2023-10-14T08:04:48.196Z,13.28
2023-10-14T08:07:16.234Z,13.33
2023-10-14T08:09:45.561Z,13.39
2023-10-14T08:12:15.360Z,13.44
2023-10-14T08:14:45.683Z,13.63
2023-10-14T08:17:13.829Z,13.62
2023-10-14T08:19:42.188Z,13.70
2023-10-14T08:22:15.393Z,13.76
2023-10-14T08:24:46.939Z,13.83
2023-10-14T08:27:14.959Z,13.93
2023-10-14T08:29:43.523Z,13.96
2023-10-14T08:32:11.841Z,13.99
2023-10-14T08:34:39.733Z,13.97
2023-10-14T08:37:09.033Z,13.97
2023-10-14T08:39:37.073Z,14.02
2023-10-14T08:42:10.917Z,14.00
2023-10-14T08:44:44.985Z,14.05
2023-10-14T08:47:15.680Z,14.15
2023-10-14T08:49:44.188Z,14.19
2023-10-14T08:52:17.702Z,14.18
2023-10-14T08:54:47.521Z,14.10
2023-10-14T08:57:17.299Z,14.02
2023-10-14T08:59:45.543Z,13.97
2023-10-14T09:02:15.057Z,13.96
2023-10-14T09:04:43.122Z,14.07
2023-10-14T09:07:15.371Z,14.22
2023-10-14T09:09:43.434Z,14.27
2023-10-14T09:12:13.454Z,14.24
2023-10-14T09:14:44.057Z,14.20
2023-10-14T09:17:13.386Z,14.15
2023-10-14T09:19:46.857Z,14.21
2023-10-14T09:22:22.818Z,14.23
2023-10-14T09:24:52.181Z,14.28
2023-10-14T09:27:21.130Z,14.32
2023-10-14T09:29:50.501Z,14.27
2023-10-14T09:32:19.403Z,14.24
2023-10-14T09:34:47.476Z,14.31
2023-10-14T09:37:19.117Z,14.42
2023-10-14T09:39:51.182Z,14.50
2023-10-14T09:42:23.142Z,14.61
2023-10-14T09:44:54.434Z,14.62
2023-10-14T09:47:23.757Z,14.66
2023-10-14T09:49:54.491Z,14.70
2023-10-14T09:52:23.459Z,14.65
2023-10-14T09:54:53.594Z,14.58
2023-10-14T09:57:23.396Z,14.43
2023-10-14T09:59:55.641Z,14.43
2023-10-14T10:02:24.561Z,14.52
2023-10-14T10:04:55.391Z,14.62
2023-10-14T10:07:43.478Z,14.73
2023-10-14T10:10:17.267Z,14.73
2023-10-14T10:12:54.154Z,14.76
2023-10-14T10:15:25.469Z,14.86
2023-10-14T10:17:59.115Z,14.84
2023-10-14T10:20:36.681Z,14.81
2023-10-14T10:23:05.052Z,14.84
2023-10-14T10:25:50.878Z,14.81
2023-10-14T10:28:38.684Z,14.88
2023-10-14T10:31:10.979Z,14.99
2023-10-14T10:34:04.848Z,15.33
2023-10-14T10:36:37.643Z,15.42
2023-10-14T10:39:17.137Z,15.58
2023-10-14T10:41:48.565Z,15.60
2023-10-14T10:44:20.118Z,15.58
2023-10-14T10:46:51.899Z,15.57
2023-10-14T10:50:04.154Z,15.75
2023-10-14T10:52:37.584Z,15.70
2023-10-14T10:55:07.110Z,15.55
2023-10-14T10:57:37.169Z,15.63
2023-10-14T11:00:10.801Z,15.71
2023-10-14T11:02:40.983Z,15.58
2023-10-14T11:05:09.564Z,15.46
2023-10-14T11:07:37.557Z,15.60
2023-10-14T11:10:06.219Z,15.59
2023-10-14T11:12:37.045Z,15.42
2023-10-14T11:15:09.000Z,15.51
2023-10-14T11:17:41.216Z,15.41
2023-10-14T11:20:10.628Z,15.34
2023-10-14T11:22:38.764Z,15.09
2023-10-14T11:25:13.914Z,14.96
2023-10-14T11:27:48.323Z,14.89
2023-10-14T11:30:18.885Z,14.82
2023-10-14T11:32:53.517Z,14.67
2023-10-14T11:35:23.555Z,14.67
2023-10-14T11:37:58.323Z,14.72
2023-10-14T11:40:34.388Z,14.87
2023-10-14T11:43:02.456Z,15.17
2023-10-14T11:45:31.862Z,15.08
2023-10-14T11:48:01.611Z,15.12
2023-10-14T11:50:31.492Z,15.48
2023-10-14T11:52:59.414Z,15.69
2023-10-14T11:55:28.910Z,15.69
2023-10-14T11:57:56.934Z,15.84
2023-10-14T12:00:25.067Z,16.03
2023-10-14T12:02:53.494Z,16.01
2023-10-14T12:05:23.114Z,16.01
2023-10-14T12:07:52.529Z,16.46
2023-10-14T12:10:27.091Z,15.65
2023-10-14T12:12:55.905Z,15.35
2023-10-14T12:15:23.959Z,15.04
2023-10-14T12:17:52.000Z,15.80
2023-10-14T12:20:23.440Z,16.97
2023-10-14T12:22:52.836Z,17.82
2023-10-14T12:25:20.965Z,18.34
2023-10-14T12:27:49.571Z,18.00
2023-10-14T12:30:36.834Z,17.92
2023-10-14T12:33:06.156Z,18.49
2023-10-14T12:35:34.835Z,18.82
2023-10-14T12:38:04.199Z,19.32
2023-10-14T12:40:34.774Z,20.04
2023-10-14T12:43:04.365Z,20.11
2023-10-14T12:45:33.356Z,19.46
2023-10-14T12:48:10.482Z,18.36
2023-10-14T12:50:41.650Z,17.40
2023-10-14T12:53:12.124Z,16.79
2023-10-14T12:55:43.196Z,16.52
2023-10-14T12:58:11.278Z,16.55
2023-10-14T13:00:39.252Z,16.52
2023-10-14T13:03:10.824Z,16.47
2023-10-14T13:05:40.206Z,16.47
2023-10-14T13:08:08.495Z,16.55
2023-10-14T13:10:37.997Z,16.42
2023-10-14T13:13:06.248Z,16.72
2023-10-14T13:15:36.235Z,16.91
2023-10-14T13:18:08.120Z,16.62
2023-10-14T13:20:37.472Z,16.47
2023-10-14T13:23:10.419Z,16.36
2023-10-14T13:25:40.935Z,16.39
2023-10-14T13:28:11.062Z,16.19
2023-10-14T13:30:46.219Z,16.08
2023-10-14T13:33:15.083Z,16.02
2023-10-14T13:35:43.857Z,15.98
2023-10-14T13:38:12.837Z,16.08
2023-10-14T13:40:42.968Z,15.96
2023-10-14T13:43:14.627Z,15.95
2023-10-14T13:45:43.655Z,15.78
2023-10-14T13:48:15.142Z,15.81
2023-10-14T13:50:43.474Z,15.60
2023-10-14T13:53:18.278Z,15.52
2023-10-14T13:55:47.836Z,15.48
2023-10-14T13:58:16.001Z,15.38
2023-10-14T14:00:45.760Z,15.30
2023-10-14T14:03:15.579Z,15.35
2023-10-14T14:05:48.527Z,15.38
2023-10-14T14:08:18.321Z,15.29
2023-10-14T14:10:48.087Z,15.36
2023-10-14T14:13:18.622Z,15.26
2023-10-14T14:15:48.084Z,15.23
2023-10-14T14:18:16.314Z,15.20
2023-10-14T14:20:44.270Z,15.24
2023-10-14T14:23:17.014Z,15.20
2023-10-14T14:25:45.278Z,15.19
2023-10-14T14:28:14.794Z,15.22
2023-10-14T14:30:42.752Z,15.23
2023-10-14T14:33:11.180Z,15.16
2023-10-14T14:35:39.417Z,15.16
2023-10-14T14:38:09.441Z,15.10
2023-10-14T14:40:41.908Z,15.01
2023-10-14T14:43:10.961Z,14.40
2023-10-14T14:45:41.720Z,13.46
2023-10-14T14:48:11.351Z,12.49
2023-10-14T14:50:45.652Z,12.05
2023-10-14T14:53:13.577Z,11.96
2023-10-14T14:55:43.962Z,11.94
2023-10-14T14:58:15.814Z,12.01
2023-10-14T15:00:46.172Z,12.03
2023-10-14T15:03:14.232Z,12.06
2023-10-14T15:05:43.837Z,12.21
2023-10-14T15:08:13.836Z,12.29
2023-10-14T15:10:46.321Z,12.27
2023-10-14T15:13:15.926Z,12.30
2023-10-14T15:15:50.922Z,12.30
2023-10-14T15:18:20.905Z,12.33
2023-10-14T15:20:48.951Z,12.34
2023-10-14T15:23:16.944Z,12.38
2023-10-14T15:25:45.540Z,12.36
2023-10-14T15:28:13.748Z,12.40
2023-10-14T15:30:42.366Z,12.50
2023-10-14T15:33:12.728Z,12.51
2023-10-14T15:35:40.745Z,12.48
2023-10-14T15:38:09.678Z,12.56
2023-10-14T15:40:38.062Z,12.51
2023-10-14T15:43:07.046Z,12.52
2023-10-14T15:45:37.376Z,12.52
2023-10-14T15:48:10.432Z,12.51
2023-10-14T15:50:44.929Z,12.49
2023-10-14T15:53:13.626Z,12.54
2023-10-14T15:55:43.225Z,12.57
2023-10-14T15:58:14.118Z,12.50
2023-10-14T16:00:48.536Z,12.32
2023-10-14T16:03:17.492Z,12.19
2023-10-14T16:05:47.011Z,12.10
2023-10-14T16:08:17.364Z,12.15
2023-10-14T16:10:47.065Z,12.08
2023-10-14T16:13:16.366Z,12.04
2023-10-14T16:15:45.191Z,12.04
2023-10-14T16:18:13.727Z,12.03
2023-10-14T16:20:44.525Z,11.93
2023-10-14T16:23:13.824Z,11.88
2023-10-14T16:25:43.354Z,11.74
2023-10-14T16:28:14.805Z,11.62
2023-10-14T16:30:42.730Z,11.21
2023-10-14T16:33:12.138Z,10.99
2023-10-14T16:35:42.226Z,10.83
2023-10-14T16:38:11.277Z,10.81
2023-10-14T16:40:40.691Z,10.81
2023-10-14T16:43:09.619Z,10.81
2023-10-14T16:45:38.100Z,10.72
2023-10-14T16:48:09.255Z,10.78
2023-10-14T16:50:38.759Z,10.80
2023-10-14T16:53:08.612Z,10.93
2023-10-14T16:55:37.137Z,11.00
2023-10-14T16:58:07.741Z,11.10
2023-10-14T17:00:36.039Z,11.12
2023-10-14T17:03:07.010Z,11.17
2023-10-14T17:05:35.380Z,11.13
2023-10-14T17:08:05.591Z,11.17
2023-10-14T17:10:36.330Z,11.18
2023-10-14T17:13:07.380Z,11.16
2023-10-14T17:15:35.488Z,11.20
2023-10-14T17:18:07.322Z,11.14
2023-10-14T17:20:36.558Z,11.27
2023-10-14T17:23:06.002Z,11.26
2023-10-14T17:25:35.133Z,11.23
2023-10-14T17:28:06.018Z,11.28
2023-10-14T17:30:34.756Z,11.34
2023-10-14T17:33:04.405Z,11.24
2023-10-14T17:35:33.004Z,11.27
2023-10-14T17:38:02.564Z,11.18
2023-10-14T17:40:31.530Z,11.22
2023-10-14T17:43:06.315Z,11.20
2023-10-14T17:45:36.646Z,11.20
2023-10-14T17:48:07.012Z,11.18
2023-10-14T17:50:36.500Z,11.07
2023-10-14T17:53:10.759Z,11.17
2023-10-14T17:55:38.727Z,11.03
2023-10-14T17:58:06.893Z,11.07
2023-10-14T18:00:36.386Z,11.01
2023-10-14T18:03:09.081Z,10.93
2023-10-14T18:05:41.898Z,11.05
2023-10-14T18:08:11.141Z,11.10
2023-10-14T18:10:39.206Z,11.01
2023-10-14T18:13:09.379Z,11.14
2023-10-14T18:15:41.500Z,11.11
2023-10-14T18:18:09.881Z,11.10
2023-10-14T18:20:38.835Z,11.08
2023-10-14T18:23:08.134Z,11.01
2023-10-14T18:25:39.719Z,10.88
2023-10-14T18:28:08.779Z,10.98
2023-10-14T18:30:40.964Z,10.97
2023-10-14T18:33:12.165Z,10.94
2023-10-14T18:35:41.339Z,10.83
2023-10-14T18:38:11.594Z,10.91
2023-10-14T18:40:40.672Z,10.81
2023-10-14T18:43:09.671Z,10.91
2023-10-14T18:45:40.675Z,10.82
2023-10-14T18:48:09.954Z,10.92
2023-10-14T18:50:39.823Z,10.93
2023-10-14T18:53:09.534Z,10.92
2023-10-14T18:55:39.240Z,10.81
2023-10-14T18:58:10.356Z,10.78
2023-10-14T19:00:43.400Z,10.79
2023-10-14T19:03:12.374Z,10.94
2023-10-14T19:05:40.743Z,10.83
2023-10-14T19:08:11.558Z,10.89
2023-10-14T19:10:42.552Z,10.95
2023-10-14T19:13:12.247Z,10.93
2023-10-14T19:15:47.492Z,10.94
2023-10-14T19:18:20.110Z,11.03
2023-10-14T19:20:48.955Z,11.00
2023-10-14T19:23:19.332Z,10.93
2023-10-14T19:25:50.591Z,10.89
2023-10-14T19:28:22.255Z,10.99
2023-10-14T19:30:53.389Z,11.04
2023-10-14T19:33:22.801Z,11.04
2023-10-14T19:35:52.733Z,10.98
2023-10-14T19:38:21.833Z,11.02
2023-10-14T19:40:51.009Z,10.89
2023-10-14T19:43:19.080Z,10.99
2023-10-14T19:45:48.789Z,11.00
2023-10-14T19:48:19.006Z,11.00
2023-10-14T19:50:46.948Z,10.92
2023-10-14T19:53:15.049Z,10.96
2023-10-14T19:55:45.608Z,10.96
2023-10-14T19:58:14.894Z,10.91
2023-10-14T20:00:43.800Z,10.97
2023-10-14T20:03:13.656Z,10.95
2023-10-14T20:05:47.099Z,10.90
2023-10-14T20:08:18.241Z,10.91
2023-10-14T20:10:47.268Z,10.97
2023-10-14T20:13:17.186Z,11.05
2023-10-14T20:15:47.592Z,10.90
2023-10-14T20:18:17.986Z,10.91
2023-10-14T20:20:50.425Z,10.88
2023-10-14T20:23:19.841Z,10.93
2023-10-14T20:25:50.696Z,10.93
2023-10-14T20:28:19.091Z,10.95
2023-10-14T20:30:50.221Z,10.94
2023-10-14T20:33:18.734Z,10.93
2023-10-14T20:35:48.821Z,10.93
2023-10-14T20:38:16.810Z,10.88
2023-10-14T20:40:46.042Z,10.98
2023-10-14T20:43:15.050Z,10.97
2023-10-14T20:45:45.908Z,10.96
2023-10-14T20:48:15.181Z,10.93
2023-10-14T20:50:48.987Z,10.89
2023-10-14T20:53:19.209Z,10.98
2023-10-14T20:55:47.618Z,10.87
2023-10-14T20:58:16.364Z,10.91
2023-10-14T21:00:44.647Z,10.99
2023-10-14T21:03:21.214Z,11.00
2023-10-14T21:05:53.430Z,10.94
2023-10-14T21:08:25.653Z,10.87
2023-10-14T21:10:56.695Z,10.83
2023-10-14T21:13:27.143Z,10.81
2023-10-14T21:16:00.787Z,10.78
2023-10-14T21:18:29.103Z,10.70
2023-10-14T21:20:57.179Z,10.72
2023-10-14T21:23:26.994Z,10.70
2023-10-14T21:25:56.497Z,10.63
2023-10-14T21:28:25.005Z,10.64
2023-10-14T21:30:53.073Z,10.56
2023-10-14T21:33:21.528Z,10.51
2023-10-14T21:35:51.756Z,10.47
2023-10-14T21:38:19.730Z,10.48
2023-10-14T21:40:49.804Z,10.44
2023-10-14T21:43:19.174Z,10.48
2023-10-14T21:45:47.518Z,10.39
2023-10-14T21:48:15.811Z,10.33
2023-10-14T21:50:44.289Z,10.29
2023-10-14T21:53:13.460Z,10.23
2023-10-14T21:55:42.367Z,10.27
2023-10-14T21:58:15.048Z,10.18
2023-10-14T22:00:50.117Z,10.18
2023-10-14T22:03:21.001Z,10.16
2023-10-14T22:05:49.900Z,10.13
2023-10-14T22:08:19.667Z,10.05
2023-10-14T22:10:51.318Z,10.05
2023-10-14T22:13:22.469Z,10.01
2023-10-14T22:15:50.697Z,9.92
2023-10-14T22:18:18.640Z,9.97
2023-10-14T22:20:46.531Z,9.88
2023-10-14T22:23:14.477Z,9.88
2023-10-14T22:25:46.561Z,9.86
2023-10-14T22:28:16.673Z,9.87
2023-10-14T22:30:47.116Z,9.85
2023-10-14T22:33:15.447Z,9.84
2023-10-14T22:35:45.264Z,9.82
2023-10-14T22:38:13.505Z,9.80
2023-10-14T22:40:44.694Z,9.82
2023-10-14T22:43:13.143Z,9.79
2023-10-14T22:45:41.225Z,9.74
2023-10-14T22:48:11.124Z,9.73
2023-10-14T22:50:39.580Z,9.68
2023-10-14T22:53:11.280Z,9.69
2023-10-14T22:55:39.956Z,9.72
2023-10-14T22:58:07.961Z,9.64
2023-10-14T23:00:37.015Z,9.59
2023-10-14T23:03:10.449Z,9.72
2023-10-14T23:05:43.028Z,9.62
2023-10-14T23:08:13.670Z,9.65
2023-10-14T23:10:42.621Z,9.51
2023-10-14T23:13:10.573Z,9.62
2023-10-14T23:15:40.298Z,9.50
2023-10-14T23:18:10.613Z,9.54
2023-10-14T23:20:38.875Z,9.57
2023-10-14T23:23:08.434Z,9.50
2023-10-14T23:25:37.063Z,9.45
2023-10-14T23:28:07.934Z,9.43
2023-10-14T23:30:36.364Z,9.43
2023-10-14T23:33:05.143Z,9.42
2023-10-14T23:35:35.127Z,9.37
2023-10-14T23:38:07.093Z,9.30
2023-10-14T23:40:36.943Z,9.27
2023-10-14T23:43:09.711Z,9.26
2023-10-14T23:45:37.780Z,9.37
2023-10-14T23:48:06.712Z,9.25
2023-10-14T23:50:37.064Z,9.21
2023-10-14T23:53:07.621Z,9.15
2023-10-14T23:55:37.110Z,9.12
2023-10-14T23:58:05.578Z,8.97
